createdAt,value
2019-01-25T00:00:06.548Z,-3.32
2019-01-25T00:02:34.396Z,-3.30
2019-01-25T00:05:03.424Z,-3.50
2019-01-25T00:07:31.263Z,-3.24
2019-01-25T00:09:59.229Z,-3.35
2019-01-25T00:12:27.713Z,-3.23
2019-01-25T00:14:55.464Z,-3.25
2019-01-25T00:17:23.370Z,-3.26
2019-01-25T00:19:51.708Z,-3.27
2019-01-25T00:22:20.061Z,-3.25
2019-01-25T00:24:48.639Z,-3.25
2019-01-25T00:27:17.226Z,-3.22
2019-01-25T00:29:45.173Z,-3.19
2019-01-25T00:32:12.968Z,-3.28
2019-01-25T00:34:42.298Z,-3.25
2019-01-25T00:37:10.660Z,-3.15
2019-01-25T00:39:39.321Z,-3.18
2019-01-25T00:42:07.859Z,-3.23
2019-01-25T00:44:36.570Z,-3.26
2019-01-25T00:47:05.833Z,-3.31
2019-01-25T00:49:35.096Z,-3.36
2019-01-25T00:52:03.121Z,-3.38
2019-01-25T00:54:32.753Z,-3.41
2019-01-25T00:57:00.977Z,-3.45
2019-01-25T00:59:28.897Z,-3.52
2019-01-25T01:02:11.074Z,-3.57
2019-01-25T01:04:39.126Z,-3.64
2019-01-25T01:07:07.321Z,-3.66
2019-01-25T01:09:36.166Z,-3.68
2019-01-25T01:12:05.121Z,-3.70
2019-01-25T01:14:33.094Z,-3.86
2019-01-25T01:17:03.137Z,-3.68
2019-01-25T01:19:31.195Z,-3.68
2019-01-25T01:21:59.586Z,-3.98
2019-01-25T01:24:28.689Z,-3.72
2019-01-25T01:26:57.579Z,-3.77
2019-01-25T01:29:26.193Z,-3.81
2019-01-25T01:31:54.086Z,-3.85
2019-01-25T01:34:22.284Z,-3.87
2019-01-25T01:36:51.021Z,-3.89
2019-01-25T01:39:19.288Z,-3.91
2019-01-25T01:41:47.283Z,-3.92
2019-01-25T01:44:15.707Z,-3.94
2019-01-25T01:46:43.644Z,-3.94
2019-01-25T01:49:12.104Z,-3.95
2019-01-25T01:51:40.302Z,-3.97
2019-01-25T01:54:08.232Z,-3.97
2019-01-25T01:56:36.328Z,-4.00
2019-01-25T01:59:04.574Z,-3.99
2019-01-25T02:01:33.276Z,-4.00
2019-01-25T02:04:01.647Z,-3.97
2019-01-25T02:06:29.524Z,-3.98
2019-01-25T02:08:57.856Z,-3.97
2019-01-25T02:11:25.748Z,-3.99
2019-01-25T02:13:53.934Z,-3.99
2019-01-25T02:16:22.195Z,-4.02
2019-01-25T02:18:50.189Z,-4.01
2019-01-25T02:21:18.932Z,-4.02
2019-01-25T02:23:47.023Z,-3.98
2019-01-25T02:26:15.083Z,-3.98
2019-01-25T02:28:43.049Z,-4.23
2019-01-25T02:31:11.370Z,-3.96
2019-01-25T02:33:40.394Z,-3.96
2019-01-25T02:36:08.267Z,-3.94
2019-01-25T02:38:36.176Z,-3.92
2019-01-25T02:41:04.986Z,-3.93
2019-01-25T02:43:32.976Z,-3.90
2019-01-25T02:46:00.689Z,-3.92
2019-01-25T02:48:28.886Z,-3.92
2019-01-25T02:50:56.846Z,-3.93
2019-01-25T02:53:25.604Z,-3.95
2019-01-25T02:55:53.827Z,-3.94
2019-01-25T02:58:21.563Z,-3.88
2019-01-25T03:00:49.815Z,-3.81
2019-01-25T03:03:17.651Z,-3.76
2019-01-25T03:05:46.138Z,-3.71
2019-01-25T03:08:15.041Z,-3.68
2019-01-25T03:10:47.246Z,-3.64
2019-01-25T03:13:11.416Z,-3.72
2019-01-25T03:15:39.309Z,-3.74
2019-01-25T03:18:07.855Z,-3.60
2019-01-25T03:20:35.805Z,-3.58
2019-01-25T03:23:03.715Z,-3.54
2019-01-25T03:25:32.077Z,-3.51
2019-01-25T03:28:00.216Z,-3.50
2019-01-25T03:30:28.105Z,-3.48
2019-01-25T03:32:56.387Z,-3.45
2019-01-25T03:35:25.226Z,-3.45
2019-01-25T03:37:53.707Z,-3.39
2019-01-25T03:40:23.622Z,-3.38
2019-01-25T03:42:51.656Z,-3.38
2019-01-25T03:45:20.077Z,-3.38
2019-01-25T03:47:48.061Z,-3.41
2019-01-25T03:50:18.837Z,-3.39
2019-01-25T03:52:47.658Z,-3.40
2019-01-25T03:55:16.399Z,-3.42
2019-01-25T03:57:45.052Z,-3.44
2019-01-25T04:00:15.828Z,-3.70
2019-01-25T04:02:44.392Z,-3.43
2019-01-25T04:05:13.330Z,-3.42
2019-01-25T04:07:41.433Z,-3.40
2019-01-25T04:10:12.732Z,-4.48
2019-01-25T04:12:40.888Z,-3.55
2019-01-25T04:15:11.024Z,-3.31
2019-01-25T04:17:39.005Z,-3.30
2019-01-25T04:20:09.332Z,-3.27
2019-01-25T04:22:37.777Z,-3.25
2019-01-25T04:25:07.127Z,-3.23
2019-01-25T04:27:34.880Z,-3.48
2019-01-25T04:30:03.630Z,-3.22
2019-01-25T04:32:31.763Z,-3.19
2019-01-25T04:34:59.464Z,-3.20
2019-01-25T04:37:27.680Z,-3.26
2019-01-25T04:39:55.799Z,-3.29
2019-01-25T04:42:24.524Z,-3.33
2019-01-25T04:44:52.337Z,-3.37
2019-01-25T04:47:24.964Z,-3.39
2019-01-25T04:49:53.044Z,-3.41
2019-01-25T04:52:20.735Z,-3.56
2019-01-25T04:54:48.887Z,-3.66
2019-01-25T04:57:16.752Z,-3.42
2019-01-25T04:59:44.682Z,-3.39
2019-01-25T05:02:13.140Z,-3.39
2019-01-25T05:04:41.484Z,-4.48
2019-01-25T05:07:09.346Z,-3.92
2019-01-25T05:09:38.681Z,-4.50
2019-01-25T05:12:07.433Z,-3.46
2019-01-25T05:14:37.096Z,-3.46
2019-01-25T05:17:06.803Z,-3.46
2019-01-25T05:19:41.618Z,-3.47
2019-01-25T05:22:11.265Z,-3.42
2019-01-25T05:24:39.271Z,-3.38
2019-01-25T05:27:07.060Z,-3.38
2019-01-25T05:29:55.789Z,-3.39
2019-01-25T05:32:23.877Z,-3.40
2019-01-25T05:34:52.781Z,-3.43
2019-01-25T05:37:20.838Z,-3.40
2019-01-25T05:39:49.406Z,-3.70
2019-01-25T05:42:18.030Z,-3.31
2019-01-25T05:44:46.412Z,-3.29
2019-01-25T05:47:14.703Z,-3.29
2019-01-25T05:49:42.744Z,-3.30
2019-01-25T05:52:19.021Z,-3.32
2019-01-25T05:54:48.181Z,-3.30
2019-01-25T05:57:17.705Z,-3.27
2019-01-25T05:59:46.127Z,-3.24
2019-01-25T06:02:14.252Z,-3.24
2019-01-25T06:04:42.171Z,-3.23
2019-01-25T06:07:10.283Z,-3.25
2019-01-25T06:09:38.229Z,-3.21
2019-01-25T06:12:06.131Z,-3.45
2019-01-25T06:14:34.397Z,-3.14
2019-01-25T06:17:02.736Z,-3.14
2019-01-25T06:19:37.102Z,-3.12
2019-01-25T06:22:04.725Z,-3.08
2019-01-25T06:24:32.683Z,-3.07
2019-01-25T06:27:00.975Z,-4.59
2019-01-25T06:29:32.130Z,-3.05
2019-01-25T06:32:01.458Z,-3.05
2019-01-25T06:34:29.659Z,-3.19
2019-01-25T06:37:02.706Z,-3.10
2019-01-25T06:39:30.509Z,-3.14
2019-01-25T06:41:58.315Z,-3.39
2019-01-25T06:44:26.371Z,-3.17
2019-01-25T06:46:54.772Z,-3.18
2019-01-25T06:49:23.024Z,-3.19
2019-01-25T06:51:50.982Z,-3.19
2019-01-25T06:54:19.103Z,-3.21
2019-01-25T06:56:47.360Z,-3.23
2019-01-25T06:59:17.745Z,-3.17
2019-01-25T07:01:51.745Z,-3.14
2019-01-25T07:04:19.586Z,-3.14
2019-01-25T07:06:48.125Z,-3.13
2019-01-25T07:09:16.056Z,-3.13
2019-01-25T07:11:43.820Z,-3.13
2019-01-25T07:14:12.307Z,-3.11
2019-01-25T07:16:40.067Z,-3.11
2019-01-25T07:19:08.418Z,-3.10
2019-01-25T07:21:36.280Z,-3.10
2019-01-25T07:24:04.412Z,-3.07
2019-01-25T07:26:32.866Z,-3.06
2019-01-25T07:29:00.630Z,-3.05
2019-01-25T07:31:28.664Z,-3.33
2019-01-25T07:33:56.683Z,-3.06
2019-01-25T07:36:24.656Z,-3.04
2019-01-25T07:38:52.948Z,-3.05
2019-01-25T07:41:22.877Z,-3.52
2019-01-25T07:43:51.111Z,-3.03
2019-01-25T07:46:19.168Z,-3.02
2019-01-25T07:48:47.785Z,-3.02
2019-01-25T07:51:16.067Z,-3.02
2019-01-25T07:53:44.255Z,-3.04
2019-01-25T07:56:11.991Z,-3.01
2019-01-25T07:58:40.007Z,-3.11
2019-01-25T08:01:07.951Z,-2.95
2019-01-25T08:03:35.757Z,-2.94
2019-01-25T08:06:03.895Z,-2.92
2019-01-25T08:08:31.969Z,-2.92
2019-01-25T08:11:00.445Z,-2.99
2019-01-25T08:13:28.409Z,-2.96
2019-01-25T08:15:56.190Z,-2.95
2019-01-25T08:18:24.514Z,-2.94
2019-01-25T08:20:52.474Z,-2.91
2019-01-25T08:23:20.761Z,-2.87
2019-01-25T08:25:48.598Z,-2.87
2019-01-25T08:28:16.405Z,-2.85
2019-01-25T08:30:44.285Z,-2.86
2019-01-25T08:33:12.220Z,-2.86
2019-01-25T08:35:40.342Z,-2.87
2019-01-25T08:38:08.192Z,-3.30
2019-01-25T08:40:36.052Z,-2.96
2019-01-25T08:43:04.229Z,-2.98
2019-01-25T08:45:31.961Z,-2.98
2019-01-25T08:47:59.757Z,-2.97
2019-01-25T08:50:27.593Z,-2.96
2019-01-25T08:52:55.583Z,-2.93
2019-01-25T08:55:23.727Z,-2.92
2019-01-25T08:57:51.474Z,-3.07
2019-01-25T09:00:20.411Z,-2.93
2019-01-25T09:02:48.215Z,-2.89
2019-01-25T09:05:16.428Z,-2.96
2019-01-25T09:07:44.833Z,-2.78
2019-01-25T09:10:14.851Z,-2.74
2019-01-25T09:12:42.790Z,-2.70
2019-01-25T09:15:14.127Z,-2.69
2019-01-25T09:17:41.865Z,-2.66
2019-01-25T09:20:14.547Z,-2.66
2019-01-25T09:22:40.117Z,-2.67
2019-01-25T09:25:08.397Z,-2.68
2019-01-25T09:27:36.947Z,-2.72
2019-01-25T09:30:06.805Z,-2.71
2019-01-25T09:32:34.656Z,-2.94
2019-01-25T09:35:03.189Z,-2.65
2019-01-25T09:37:31.103Z,-2.59
2019-01-25T09:39:59.284Z,-3.02
2019-01-25T09:42:31.192Z,-2.47
2019-01-25T09:44:56.426Z,-2.43
2019-01-25T09:47:24.728Z,-2.38
2019-01-25T09:49:52.748Z,-2.59
2019-01-25T09:52:20.449Z,-2.31
2019-01-25T09:54:49.079Z,-2.31
2019-01-25T09:57:16.856Z,-2.27
2019-01-25T09:59:46.253Z,-2.56
2019-01-25T10:02:14.033Z,-2.32
2019-01-25T10:04:41.813Z,-2.33
2019-01-25T10:07:10.204Z,-2.34
2019-01-25T10:09:38.768Z,-2.33
2019-01-25T10:12:07.611Z,-2.31
2019-01-25T10:14:35.474Z,-2.28
2019-01-25T10:17:03.502Z,-2.22
2019-01-25T10:19:31.774Z,-2.20
2019-01-25T10:21:59.556Z,-2.23
2019-01-25T10:24:27.289Z,-2.27
2019-01-25T10:26:55.180Z,-2.33
2019-01-25T10:29:22.957Z,-2.31
2019-01-25T10:31:51.233Z,-2.31
2019-01-25T10:34:19.114Z,-2.28
2019-01-25T10:36:46.857Z,-2.23
2019-01-25T10:39:14.581Z,-2.43
2019-01-25T10:41:42.306Z,-2.16
2019-01-25T10:44:11.163Z,-2.14
2019-01-25T10:46:38.946Z,-2.14
2019-01-25T10:49:06.736Z,-2.10
2019-01-25T10:51:34.880Z,-2.05
2019-01-25T10:54:02.938Z,-2.17
2019-01-25T10:56:30.994Z,-2.68
2019-01-25T10:58:59.106Z,-2.09
2019-01-25T11:01:27.125Z,-2.19
2019-01-25T11:03:55.543Z,-1.91
2019-01-25T11:06:23.881Z,-1.89
2019-01-25T11:08:52.951Z,-1.89
2019-01-25T11:11:20.153Z,-1.85
2019-01-25T11:13:48.157Z,-1.85
2019-01-25T11:16:17.053Z,-1.84
2019-01-25T11:18:45.137Z,-1.79
2019-01-25T11:21:12.927Z,-1.76
2019-01-25T11:23:41.515Z,-1.72
2019-01-25T11:26:09.405Z,-1.70
2019-01-25T11:28:37.730Z,-1.71
2019-01-25T11:31:06.884Z,-1.68
2019-01-25T11:33:37.747Z,-1.70
2019-01-25T11:36:06.352Z,-1.70
2019-01-25T11:38:34.728Z,-1.70
2019-01-25T11:41:02.864Z,-1.70
2019-01-25T11:43:31.401Z,-1.76
2019-01-25T11:46:00.551Z,-2.87
2019-01-25T11:48:29.244Z,-1.77
2019-01-25T11:50:58.371Z,-3.43
2019-01-25T11:53:26.212Z,-1.75
2019-01-25T11:55:55.753Z,-1.74
2019-01-25T11:58:23.942Z,-1.70
2019-01-25T12:00:52.140Z,-1.69
2019-01-25T12:03:19.914Z,-1.70
2019-01-25T12:05:47.727Z,-1.65
2019-01-25T12:08:16.546Z,-1.64
2019-01-25T12:10:46.183Z,-2.44
2019-01-25T12:13:16.612Z,-1.62
2019-01-25T12:15:49.035Z,-1.61
2019-01-25T12:18:18.088Z,-1.57
2019-01-25T12:20:49.545Z,-1.55
2019-01-25T12:23:20.827Z,-2.44
2019-01-25T12:25:49.049Z,-1.50
2019-01-25T12:28:17.364Z,-1.49
2019-01-25T12:30:50.792Z,-1.47
2019-01-25T12:33:19.121Z,-1.45
2019-01-25T12:35:46.875Z,-1.50
2019-01-25T12:38:14.932Z,-2.21
2019-01-25T12:40:43.032Z,-1.82
2019-01-25T12:43:11.132Z,-3.36
2019-01-25T12:45:39.864Z,-2.15
2019-01-25T12:48:08.751Z,-1.40
2019-01-25T12:50:41.937Z,-1.37
2019-01-25T12:53:11.655Z,-1.35
2019-01-25T12:55:44.383Z,-1.35
2019-01-25T12:58:14.910Z,-2.66
2019-01-25T13:00:43.571Z,-2.04
2019-01-25T13:03:12.943Z,-1.47
2019-01-25T13:05:41.463Z,-1.47
2019-01-25T13:08:10.009Z,-1.53
2019-01-25T13:10:38.592Z,-1.55
2019-01-25T13:13:07.286Z,-1.81
2019-01-25T13:15:37.104Z,-1.82
2019-01-25T13:18:08.588Z,-1.56
2019-01-25T13:20:39.891Z,-1.59
2019-01-25T13:23:09.466Z,-1.64
2019-01-25T13:25:38.409Z,-1.65
2019-01-25T13:28:09.826Z,-2.48
2019-01-25T13:30:43.955Z,-1.65
2019-01-25T13:33:14.180Z,-3.12
2019-01-25T13:35:43.885Z,-1.64
2019-01-25T13:38:16.450Z,-1.68
2019-01-25T13:40:50.163Z,-1.68
2019-01-25T13:43:26.881Z,-1.63
2019-01-25T13:46:13.657Z,-1.63
2019-01-25T13:48:48.657Z,-1.65
2019-01-25T13:51:28.040Z,-2.67
2019-01-25T13:53:56.767Z,-1.69
2019-01-25T13:56:31.593Z,-2.95
2019-01-25T13:59:01.091Z,-2.81
2019-01-25T14:01:36.576Z,-1.70
2019-01-25T14:04:05.558Z,-1.75
2019-01-25T14:06:34.314Z,-1.82
2019-01-25T14:09:07.659Z,-1.82
2019-01-25T14:11:38.424Z,-1.84
2019-01-25T14:14:10.565Z,-1.85
2019-01-25T14:16:43.710Z,-1.88
2019-01-25T14:19:12.515Z,-1.90
2019-01-25T14:21:45.823Z,-2.06
2019-01-25T14:24:25.149Z,-1.94
2019-01-25T14:26:58.611Z,-1.92
2019-01-25T14:29:29.368Z,-1.93
2019-01-25T14:32:08.174Z,-1.96
2019-01-25T14:34:38.801Z,-1.98
2019-01-25T14:37:09.470Z,-2.01
2019-01-25T14:39:39.685Z,-2.04
2019-01-25T14:42:10.578Z,-2.18
2019-01-25T14:44:48.475Z,-2.09
2019-01-25T14:50:01.661Z,-2.07
2019-01-25T14:52:32.402Z,-2.07
2019-01-25T14:55:09.843Z,-2.18
2019-01-25T14:57:40.151Z,-2.64
2019-01-25T15:00:14.477Z,-2.13
2019-01-25T15:02:44.056Z,-2.36
2019-01-25T15:05:18.409Z,-2.13
2019-01-25T15:07:48.799Z,-2.12
2019-01-25T15:10:18.760Z,-2.10
2019-01-25T15:12:48.482Z,-2.12
2019-01-25T15:15:16.543Z,-2.17
2019-01-25T15:17:46.552Z,-2.20
2019-01-25T15:20:16.994Z,-2.23
2019-01-25T15:22:45.530Z,-2.27
2019-01-25T15:25:16.507Z,-2.31
2019-01-25T15:27:45.276Z,-2.33
2019-01-25T15:32:56.794Z,-2.39
2019-01-25T15:35:25.204Z,-2.88
2019-01-25T15:37:55.607Z,-2.95
2019-01-25T15:40:24.041Z,-2.49
2019-01-25T15:42:52.950Z,-2.55
2019-01-25T15:45:22.377Z,-2.58
2019-01-25T15:47:53.526Z,-2.61
2019-01-25T15:50:29.822Z,-2.62
2019-01-25T15:52:59.133Z,-2.65
2019-01-25T15:55:29.648Z,-2.69
2019-01-25T15:57:58.945Z,-2.72
2019-01-25T16:00:33.033Z,-3.45
2019-01-25T16:03:06.988Z,-2.76
2019-01-25T16:05:37.094Z,-2.78
2019-01-25T16:08:07.777Z,-2.79
2019-01-25T16:10:37.585Z,-2.84
2019-01-25T16:13:06.454Z,-2.86
2019-01-25T16:15:36.158Z,-2.90
2019-01-25T16:18:04.771Z,-2.88
2019-01-25T16:20:36.180Z,-3.12
2019-01-25T16:23:07.989Z,-2.91
2019-01-25T16:25:36.546Z,-3.03
2019-01-25T16:28:05.805Z,-2.94
2019-01-25T16:30:37.619Z,-3.16
2019-01-25T16:33:06.266Z,-2.94
2019-01-25T16:35:34.758Z,-2.95
2019-01-25T16:38:03.683Z,-2.95
2019-01-25T16:40:32.277Z,-2.96
2019-01-25T16:43:01.850Z,-2.96
2019-01-25T16:45:36.324Z,-2.96
2019-01-25T16:48:04.908Z,-2.98
2019-01-25T16:50:40.100Z,-2.99
2019-01-25T16:53:09.940Z,-3.01
2019-01-25T16:55:37.984Z,-3.01
2019-01-25T16:58:08.425Z,-3.17
2019-01-25T17:00:40.629Z,-3.28
2019-01-25T17:03:11.471Z,-3.47
2019-01-25T17:05:40.492Z,-3.71
2019-01-25T17:08:10.459Z,-3.15
2019-01-25T17:10:39.290Z,-3.18
2019-01-25T17:13:12.057Z,-3.19
2019-01-25T17:15:42.562Z,-3.21
2019-01-25T17:18:12.834Z,-3.23
2019-01-25T17:20:43.151Z,-3.27
2019-01-25T17:23:12.879Z,-3.76
2019-01-25T17:25:45.232Z,-3.44
2019-01-25T17:28:15.577Z,-3.43
2019-01-25T17:30:45.626Z,-3.31
2019-01-25T17:33:13.677Z,-3.31
2019-01-25T17:35:44.691Z,-3.70
2019-01-25T17:38:13.678Z,-3.30
2019-01-25T17:40:46.869Z,-3.39
2019-01-25T17:43:13.785Z,-3.27
2019-01-25T17:45:43.793Z,-3.26
2019-01-25T17:48:12.833Z,-3.25
2019-01-25T17:50:41.016Z,-3.58
2019-01-25T17:53:09.019Z,-3.24
2019-01-25T17:55:42.546Z,-3.22
2019-01-25T17:58:12.199Z,-3.21
2019-01-25T18:00:51.467Z,-3.19
2019-01-25T18:03:22.867Z,-3.16
2019-01-25T18:05:51.870Z,-3.14
2019-01-25T18:08:20.540Z,-3.35
2019-01-25T18:10:49.104Z,-3.55
2019-01-25T18:13:17.669Z,-3.05
2019-01-25T18:15:45.753Z,-3.01
2019-01-25T18:18:14.478Z,-2.98
2019-01-25T18:20:43.058Z,-3.40
2019-01-25T18:23:11.673Z,-2.88
2019-01-25T18:25:46.422Z,-2.82
2019-01-25T18:28:18.433Z,-2.77
2019-01-25T18:30:54.007Z,-2.74
2019-01-25T18:33:22.922Z,-2.71
2019-01-25T18:35:52.340Z,-3.27
2019-01-25T18:38:20.646Z,-2.66
2019-01-25T18:40:49.356Z,-2.64
2019-01-25T18:43:19.650Z,-2.61
2019-01-25T18:45:48.457Z,-2.56
2019-01-25T18:48:16.526Z,-2.65
2019-01-25T18:50:45.550Z,-2.52
2019-01-25T18:53:15.095Z,-2.50
2019-01-25T18:55:45.052Z,-2.61
2019-01-25T18:58:15.120Z,-2.48
2019-01-25T19:00:44.143Z,-4.30
2019-01-25T19:03:15.582Z,-2.48
2019-01-25T19:05:46.085Z,-2.48
2019-01-25T19:08:17.998Z,-2.46
2019-01-25T19:10:47.758Z,-2.90
2019-01-25T19:13:20.643Z,-2.42
2019-01-25T19:15:51.148Z,-2.40
2019-01-25T19:18:23.049Z,-2.39
2019-01-25T19:20:51.828Z,-2.58
2019-01-25T19:23:24.439Z,-2.35
2019-01-25T19:25:54.323Z,-2.33
2019-01-25T19:28:26.026Z,-2.31
2019-01-25T19:30:58.630Z,-2.29
2019-01-25T19:33:29.314Z,-2.26
2019-01-25T19:36:02.306Z,-2.24
2019-01-25T19:38:33.960Z,-2.22
2019-01-25T19:41:08.378Z,-2.21
2019-01-25T19:43:38.796Z,-2.29
2019-01-25T19:46:12.030Z,-2.13
2019-01-25T19:48:49.973Z,-2.09
2019-01-25T19:51:22.765Z,-2.07
2019-01-25T19:53:55.312Z,-2.26
2019-01-25T19:56:28.305Z,-2.02
2019-01-25T19:59:03.239Z,-2.00
2019-01-25T20:01:33.878Z,-1.98
2019-01-25T20:04:14.130Z,-1.95
2019-01-25T20:07:19.160Z,-2.03
2019-01-25T20:09:52.939Z,-1.88
2019-01-25T20:12:33.029Z,-1.85
2019-01-25T20:15:19.347Z,-1.84
2019-01-25T20:17:47.498Z,-1.81
2019-01-25T20:20:24.253Z,-1.79
2019-01-25T20:23:00.884Z,-1.75
2019-01-25T20:25:34.700Z,-1.72
2019-01-25T20:28:08.880Z,-1.92
2019-01-25T20:33:30.697Z,-1.63
2019-01-25T20:36:15.199Z,-1.69
2019-01-25T20:38:50.729Z,-1.66
2019-01-25T20:41:28.662Z,-1.51
2019-01-25T20:43:59.605Z,-1.51
2019-01-25T20:46:37.081Z,-1.50
2019-01-25T20:49:08.904Z,-1.48
2019-01-25T20:51:41.591Z,-1.46
2019-01-25T20:54:11.336Z,-1.44
2019-01-25T20:56:44.146Z,-1.41
2019-01-25T20:59:14.098Z,-1.42
2019-01-25T21:01:44.874Z,-1.45
2019-01-25T21:04:17.077Z,-1.29
2019-01-25T21:06:48.567Z,-1.25
2019-01-25T21:09:18.757Z,-1.22
2019-01-25T21:11:50.290Z,-1.17
2019-01-25T21:14:22.640Z,-1.38
2019-01-25T21:16:55.460Z,-1.10
2019-01-25T21:19:28.055Z,-1.18
2019-01-25T21:21:59.042Z,-1.05
2019-01-25T21:24:28.482Z,-1.03
2019-01-25T21:26:57.173Z,-1.22
2019-01-25T21:29:25.412Z,-0.94
2019-01-25T21:31:57.096Z,-1.04
2019-01-25T21:34:28.389Z,-0.90
2019-01-25T21:36:58.051Z,-0.87
2019-01-25T21:39:26.910Z,-0.85
2019-01-25T21:41:58.930Z,-0.84
2019-01-25T21:44:30.707Z,-0.95
2019-01-25T21:47:01.202Z,-0.82
2019-01-25T21:49:32.035Z,-0.80
2019-01-25T21:52:00.667Z,-0.78
2019-01-25T21:54:31.315Z,-0.80
2019-01-25T21:57:00.757Z,-0.77
2019-01-25T21:59:30.904Z,-0.76
2019-01-25T22:02:03.787Z,-0.76
2019-01-25T22:04:33.068Z,-0.76
2019-01-25T22:07:02.021Z,-0.84
2019-01-25T22:09:31.196Z,-0.73
2019-01-25T22:12:00.858Z,-0.72
2019-01-25T22:14:30.158Z,-0.70
2019-01-25T22:16:58.891Z,-0.68
2019-01-25T22:19:28.289Z,-0.68
2019-01-25T22:21:57.891Z,-0.78
2019-01-25T22:24:29.000Z,-0.66
2019-01-25T22:26:58.610Z,-0.65
2019-01-25T22:29:29.302Z,-0.64
2019-01-25T22:31:58.879Z,-0.62
2019-01-25T22:34:28.314Z,-0.63
2019-01-25T22:36:58.488Z,-0.59
2019-01-25T22:39:27.019Z,-0.71
2019-01-25T22:41:56.421Z,-0.56
2019-01-25T22:44:25.307Z,-0.55
2019-01-25T22:46:53.554Z,-0.54
2019-01-25T22:49:21.409Z,-0.54
2019-01-25T22:51:52.447Z,-1.16
2019-01-25T22:54:20.516Z,-0.52
2019-01-25T22:56:49.446Z,-0.62
2019-01-25T22:59:17.310Z,-0.51
2019-01-25T23:01:46.556Z,-0.49
2019-01-25T23:04:31.447Z,-0.47
2019-01-25T23:07:08.301Z,-0.47
2019-01-25T23:09:41.588Z,-0.45
2019-01-25T23:12:09.985Z,-0.43
2019-01-25T23:14:38.193Z,-0.43
2019-01-25T23:17:06.645Z,-0.42
2019-01-25T23:19:35.500Z,-0.41
2019-01-25T23:22:05.925Z,-0.43
2019-01-25T23:24:34.196Z,-0.41
2019-01-25T23:27:06.210Z,-0.41
2019-01-25T23:29:34.400Z,-0.42
2019-01-25T23:32:02.613Z,-0.41
2019-01-25T23:34:30.679Z,-0.40
2019-01-25T23:37:00.304Z,-1.01
2019-01-25T23:39:28.486Z,-0.36
2019-01-25T23:41:56.615Z,-0.35
2019-01-25T23:44:24.984Z,-0.33
2019-01-25T23:46:53.125Z,-0.42
2019-01-25T23:49:22.054Z,-0.28
2019-01-25T23:51:50.210Z,-0.27
2019-01-25T23:54:18.904Z,-0.25
2019-01-25T23:56:47.934Z,-0.24
2019-01-25T23:59:15.980Z,-0.20
